createdAt,value
2023-03-15T00:02:14.290Z,0.00
2023-03-15T00:04:46.032Z,0.00
2023-03-15T00:07:20.545Z,0.10
2023-03-15T00:09:54.738Z,0.00
2023-03-15T00:12:27.670Z,0.10
2023-03-15T00:14:54.536Z,0.10
2023-03-15T00:17:23.935Z,0.08
2023-03-15T00:19:50.722Z,0.00
2023-03-15T00:22:18.752Z,0.10
2023-03-15T00:24:45.456Z,0.00
2023-03-15T00:27:14.016Z,0.00
2023-03-15T00:29:45.706Z,0.00
2023-03-15T00:32:12.576Z,0.00
2023-03-15T00:34:39.643Z,0.10
2023-03-15T00:37:06.232Z,0.15
2023-03-15T00:39:37.860Z,0.10
2023-03-15T00:42:04.682Z,0.10
2023-03-15T00:44:31.621Z,0.10
2023-03-15T00:46:58.221Z,0.20
2023-03-15T00:49:24.852Z,0.10
2023-03-15T00:51:55.201Z,0.10
2023-03-15T00:54:24.097Z,0.10
2023-03-15T00:56:51.078Z,0.10
2023-03-15T00:59:17.703Z,0.10
2023-03-15T01:01:44.993Z,0.20
2023-03-15T01:04:13.035Z,0.20
2023-03-15T01:06:42.349Z,0.20
2023-03-15T01:09:10.015Z,0.30
2023-03-15T01:11:36.885Z,0.20
2023-03-15T01:14:05.324Z,0.20
2023-03-15T01:16:32.041Z,0.20
2023-03-15T01:18:58.636Z,0.10
2023-03-15T01:21:25.552Z,0.30
2023-03-15T01:23:53.217Z,0.20
2023-03-15T01:26:20.937Z,0.35
2023-03-15T01:28:47.827Z,0.35
2023-03-15T01:31:26.725Z,0.63
2023-03-15T01:33:54.465Z,0.38
2023-03-15T01:36:21.208Z,0.40
2023-03-15T01:38:49.601Z,0.30
2023-03-15T01:41:17.545Z,0.25
2023-03-15T01:43:47.930Z,0.30
2023-03-15T01:46:23.737Z,0.30
2023-03-15T01:49:00.030Z,0.20
2023-03-15T01:51:30.499Z,0.40
2023-03-15T01:54:07.599Z,0.20
2023-03-15T01:56:37.525Z,0.20
2023-03-15T01:59:06.312Z,0.30
2023-03-15T02:01:36.576Z,0.30
2023-03-15T02:04:09.755Z,0.22
2023-03-15T02:06:37.640Z,0.30
2023-03-15T02:11:50.541Z,0.20
2023-03-15T02:14:17.639Z,0.23
2023-03-15T02:16:44.464Z,0.22
2023-03-15T02:19:30.105Z,0.22
2023-03-15T02:22:03.711Z,0.13
2023-03-15T02:24:48.908Z,0.20
2023-03-15T02:27:29.226Z,0.20
2023-03-15T02:29:56.380Z,0.20
2023-03-15T02:32:23.210Z,0.20
2023-03-15T02:34:49.888Z,0.20
2023-03-15T02:37:16.527Z,0.13
2023-03-15T02:39:43.255Z,0.30
2023-03-15T02:42:09.973Z,0.22
2023-03-15T02:44:39.550Z,0.20
2023-03-15T02:47:11.719Z,0.20
2023-03-15T02:49:42.870Z,0.15
2023-03-15T02:52:09.736Z,0.30
2023-03-15T02:54:36.736Z,0.17
2023-03-15T02:57:04.260Z,0.20
2023-03-15T02:59:32.465Z,0.10
2023-03-15T03:01:59.640Z,0.20
2023-03-15T03:04:29.226Z,0.20
2023-03-15T03:07:00.728Z,0.20
2023-03-15T03:09:28.019Z,0.15
2023-03-15T03:11:54.975Z,0.20
2023-03-15T03:14:23.952Z,0.20
2023-03-15T03:16:51.672Z,0.20
2023-03-15T03:19:18.807Z,0.28
2023-03-15T03:21:53.083Z,0.20
2023-03-15T03:24:21.982Z,0.20
2023-03-15T03:26:51.468Z,0.20
2023-03-15T03:29:18.272Z,0.50
2023-03-15T03:31:45.321Z,0.30
2023-03-15T03:34:15.428Z,0.20
2023-03-15T03:36:44.511Z,0.20
2023-03-15T03:39:13.089Z,0.20
2023-03-15T03:41:39.965Z,0.20
2023-03-15T03:44:06.692Z,0.25
2023-03-15T03:46:35.900Z,0.40
2023-03-15T03:49:04.909Z,0.30
2023-03-15T03:51:34.093Z,0.22
2023-03-15T03:54:02.026Z,0.20
2023-03-15T03:56:28.780Z,0.20
2023-03-15T03:58:55.376Z,0.20
2023-03-15T04:01:22.298Z,0.20
2023-03-15T04:03:49.892Z,0.25
2023-03-15T04:06:16.902Z,0.30
2023-03-15T04:08:43.516Z,0.30
2023-03-15T04:11:10.158Z,0.20
2023-03-15T04:13:36.837Z,0.20
2023-03-15T04:16:04.132Z,0.20
2023-03-15T04:18:30.844Z,0.20
2023-03-15T04:20:57.425Z,0.20
2023-03-15T04:23:24.398Z,0.30
2023-03-15T04:25:52.462Z,0.30
2023-03-15T04:28:19.640Z,0.22
2023-03-15T04:30:49.205Z,0.20
2023-03-15T04:33:16.589Z,0.47
2023-03-15T04:35:43.211Z,0.20
2023-03-15T04:38:10.382Z,0.30
2023-03-15T04:40:37.284Z,0.20
2023-03-15T04:43:05.723Z,0.20
2023-03-15T04:45:33.567Z,0.20
2023-03-15T04:48:01.571Z,0.20
2023-03-15T04:50:29.656Z,0.40
2023-03-15T04:52:59.268Z,0.30
2023-03-15T04:55:25.929Z,0.40
2023-03-15T04:57:52.880Z,0.40
2023-03-15T05:00:19.727Z,0.22
2023-03-15T05:02:52.086Z,0.50
2023-03-15T05:05:18.735Z,0.25
2023-03-15T05:07:47.943Z,0.30
2023-03-15T05:10:14.654Z,0.52
2023-03-15T05:12:41.399Z,0.30
2023-03-15T05:15:08.766Z,0.20
2023-03-15T05:17:35.463Z,0.20
2023-03-15T05:20:02.145Z,0.30
2023-03-15T05:22:28.773Z,0.45
2023-03-15T05:24:55.467Z,0.20
2023-03-15T05:27:22.107Z,0.35
2023-03-15T05:29:48.840Z,0.30
2023-03-15T05:32:15.535Z,0.27
2023-03-15T05:34:42.893Z,0.35
2023-03-15T05:37:09.903Z,0.50
2023-03-15T05:39:36.492Z,0.30
2023-03-15T05:42:03.332Z,0.43
2023-03-15T05:44:29.958Z,0.43
2023-03-15T05:46:56.607Z,0.20
2023-03-15T05:49:23.266Z,0.28
2023-03-15T05:51:49.855Z,0.75
2023-03-15T05:54:16.480Z,0.22
2023-03-15T05:56:43.071Z,0.20
2023-03-15T05:59:09.677Z,0.30
2023-03-15T06:01:36.273Z,0.38
2023-03-15T06:04:02.950Z,0.30
2023-03-15T06:06:31.499Z,0.40
2023-03-15T06:08:59.258Z,0.50
2023-03-15T06:11:25.888Z,0.40
2023-03-15T06:13:52.784Z,0.30
2023-03-15T06:16:19.492Z,0.52
2023-03-15T06:18:46.388Z,0.43
2023-03-15T06:21:12.974Z,0.40
2023-03-15T06:23:39.686Z,0.43
2023-03-15T06:26:06.435Z,0.60
2023-03-15T06:28:33.100Z,0.30
2023-03-15T06:31:06.747Z,0.40
2023-03-15T06:33:33.340Z,0.40
2023-03-15T06:35:59.955Z,0.40
2023-03-15T06:38:26.653Z,0.30
2023-03-15T06:40:53.307Z,0.35
2023-03-15T06:43:19.822Z,0.70
2023-03-15T06:45:46.825Z,0.57
2023-03-15T06:48:14.725Z,0.95
2023-03-15T06:50:47.300Z,0.43
2023-03-15T06:53:14.781Z,0.55
2023-03-15T06:55:41.447Z,2.10
2023-03-15T06:58:08.095Z,2.20
2023-03-15T07:00:35.315Z,1.38
2023-03-15T07:03:03.316Z,0.95
2023-03-15T07:05:30.142Z,0.88
2023-03-15T07:07:56.756Z,0.60
2023-03-15T07:10:23.349Z,1.10
2023-03-15T07:12:50.043Z,0.80
2023-03-15T07:15:17.814Z,0.70
2023-03-15T07:17:44.351Z,1.08
2023-03-15T07:20:11.692Z,0.68
2023-03-15T07:22:38.733Z,0.53
2023-03-15T07:25:07.550Z,0.70
2023-03-15T07:27:34.166Z,0.60
2023-03-15T07:30:01.263Z,1.58
2023-03-15T07:32:28.095Z,0.70
2023-03-15T07:34:58.311Z,0.50
2023-03-15T07:37:24.991Z,0.50
2023-03-15T07:39:51.731Z,0.50
2023-03-15T07:42:18.411Z,3.95
2023-03-15T07:44:44.994Z,11.70
2023-03-15T07:47:13.565Z,1.10
2023-03-15T07:49:40.117Z,1.25
2023-03-15T07:52:10.365Z,3.03
2023-03-15T07:54:36.891Z,2.53
2023-03-15T07:57:03.784Z,1.35
2023-03-15T07:59:30.884Z,0.90
2023-03-15T08:02:00.749Z,0.50
2023-03-15T08:04:28.546Z,0.20
2023-03-15T08:06:55.130Z,0.20
2023-03-15T08:09:21.773Z,0.20
2023-03-15T08:11:48.443Z,0.20
2023-03-15T08:14:15.045Z,0.15
2023-03-15T08:16:41.693Z,0.73
2023-03-15T08:19:09.218Z,0.22
2023-03-15T08:21:35.839Z,0.40
2023-03-15T08:24:02.485Z,0.40
2023-03-15T08:26:28.996Z,0.20
2023-03-15T08:28:55.790Z,0.20
2023-03-15T08:31:23.532Z,0.22
2023-03-15T08:33:50.055Z,0.17
2023-03-15T08:36:16.636Z,0.33
2023-03-15T08:38:43.284Z,0.25
2023-03-15T08:41:09.995Z,0.25
2023-03-15T08:43:38.160Z,0.10
2023-03-15T08:46:11.266Z,0.10
2023-03-15T08:48:37.841Z,0.20
2023-03-15T08:51:06.077Z,0.10
2023-03-15T08:53:33.347Z,0.10
2023-03-15T08:56:03.491Z,0.20
2023-03-15T08:58:30.218Z,0.20
2023-03-15T09:00:57.371Z,0.10
2023-03-15T09:03:23.963Z,0.52
2023-03-15T09:05:50.511Z,0.40
2023-03-15T09:08:21.049Z,0.10
2023-03-15T09:10:47.706Z,0.20
2023-03-15T09:13:15.706Z,0.30
2023-03-15T09:15:42.261Z,0.10
2023-03-15T09:18:08.902Z,0.15
2023-03-15T09:20:35.591Z,0.10
2023-03-15T09:23:02.182Z,0.30
2023-03-15T09:25:28.819Z,0.20
2023-03-15T09:27:55.674Z,0.10
2023-03-15T09:30:22.404Z,0.28
2023-03-15T09:32:49.881Z,0.10
2023-03-15T09:35:18.655Z,0.38
2023-03-15T09:37:45.815Z,0.10
2023-03-15T09:54:50.675Z,0.50
2023-03-15T09:57:29.354Z,0.10
2023-03-15T09:59:57.053Z,0.20
2023-03-15T10:02:27.391Z,0.30
2023-03-15T10:05:01.346Z,1.27
2023-03-15T10:07:28.146Z,0.10
2023-03-15T10:09:58.421Z,0.10
2023-03-15T10:12:40.749Z,0.10
2023-03-15T10:15:23.810Z,0.10
2023-03-15T10:17:59.585Z,0.30
2023-03-15T10:20:34.207Z,0.08
2023-03-15T10:23:10.436Z,0.08
2023-03-15T10:25:38.846Z,0.17
2023-03-15T10:28:11.941Z,0.10
2023-03-15T10:30:40.790Z,0.03
2023-03-15T10:33:35.769Z,0.13
2023-03-15T10:36:11.852Z,0.22
2023-03-15T10:38:39.261Z,0.00
2023-03-15T10:41:07.270Z,0.00
2023-03-15T10:43:36.818Z,0.00
2023-03-15T10:46:04.380Z,0.30
2023-03-15T10:48:33.039Z,0.10
2023-03-15T10:51:20.903Z,0.10
2023-03-15T10:53:53.546Z,0.10
2023-03-15T10:56:25.911Z,0.30
2023-03-15T10:59:11.372Z,0.13
2023-03-15T11:01:48.199Z,0.10
2023-03-15T11:04:24.067Z,0.00
2023-03-15T11:06:57.654Z,0.10
2023-03-15T11:09:26.678Z,0.27
2023-03-15T11:12:08.157Z,0.20
2023-03-15T11:14:38.404Z,0.30
2023-03-15T11:17:07.606Z,0.10
2023-03-15T11:19:42.596Z,0.10
2023-03-15T11:22:14.709Z,0.37
2023-03-15T11:24:42.076Z,0.10
2023-03-15T11:27:15.063Z,0.00
2023-03-15T11:29:49.309Z,0.10
2023-03-15T11:32:24.536Z,0.10
2023-03-15T11:35:00.857Z,0.30
2023-03-15T11:37:37.770Z,0.10
2023-03-15T11:40:15.013Z,0.17
2023-03-15T11:42:55.024Z,0.10
2023-03-15T11:45:36.069Z,0.10
2023-03-15T11:48:16.047Z,0.10
2023-03-15T11:50:42.771Z,0.10
2023-03-15T11:53:14.017Z,0.00
2023-03-15T11:55:40.798Z,0.20
2023-03-15T11:58:32.434Z,0.10
2023-03-15T12:01:08.058Z,0.10
2023-03-15T12:03:38.821Z,0.10
2023-03-15T12:06:16.968Z,0.00
2023-03-15T12:08:53.308Z,0.10
2023-03-15T12:11:19.794Z,0.10
2023-03-15T12:14:05.430Z,0.10
2023-03-15T12:16:41.424Z,0.10
2023-03-15T12:19:15.489Z,0.10
2023-03-15T12:21:50.538Z,0.10
2023-03-15T12:24:26.362Z,0.10
2023-03-15T12:27:05.584Z,0.10
2023-03-15T12:29:35.551Z,0.28
2023-03-15T12:32:02.262Z,0.00
2023-03-15T12:34:49.462Z,0.10
2023-03-15T12:43:45.891Z,0.10
2023-03-15T12:46:39.336Z,0.20
2023-03-15T12:52:10.982Z,2.22
2023-03-15T12:54:49.269Z,0.40
2023-03-15T12:57:22.832Z,0.30
2023-03-15T12:59:57.151Z,0.00
2023-03-15T13:02:46.092Z,0.10
2023-03-15T13:05:31.879Z,0.10
2023-03-15T13:08:26.103Z,0.10
2023-03-15T13:11:07.784Z,0.13
2023-03-15T13:16:40.210Z,0.10
2023-03-15T13:19:14.507Z,0.00
2023-03-15T13:28:25.442Z,0.00
2023-03-15T13:34:55.788Z,0.10
2023-03-15T13:43:49.488Z,0.10
2023-03-15T13:46:20.200Z,0.10
2023-03-15T13:48:47.726Z,0.10
2023-03-15T13:51:19.264Z,0.10
2023-03-15T13:53:50.456Z,0.10
2023-03-15T13:59:05.625Z,0.00
2023-03-15T14:01:38.429Z,0.10
2023-03-15T14:04:12.517Z,0.20
2023-03-15T14:06:42.637Z,0.43
2023-03-15T14:09:33.187Z,0.08
2023-03-15T14:14:52.846Z,0.17
2023-03-15T14:17:25.976Z,0.20
2023-03-15T14:26:27.366Z,0.50
2023-03-15T14:29:22.401Z,0.10
2023-03-15T14:31:54.517Z,0.20
2023-03-15T14:34:25.727Z,0.30
2023-03-15T14:36:55.691Z,0.10
2023-03-15T14:39:29.939Z,0.15
2023-03-15T14:41:59.181Z,0.10
2023-03-15T14:44:28.282Z,0.10
2023-03-15T14:46:57.380Z,0.10
2023-03-15T14:49:30.165Z,0.10
2023-03-15T14:52:05.450Z,0.10
2023-03-15T14:54:33.950Z,0.10
2023-03-15T14:57:02.101Z,0.20
2023-03-15T14:59:28.778Z,0.00
2023-03-15T15:02:02.411Z,0.47
2023-03-15T15:04:36.617Z,0.10
2023-03-15T15:07:07.110Z,0.20
2023-03-15T15:09:40.152Z,0.13
2023-03-15T15:12:11.653Z,0.20
2023-03-15T15:14:38.381Z,0.17
2023-03-15T15:17:10.449Z,0.17
2023-03-15T15:19:40.948Z,0.10
2023-03-15T15:22:14.153Z,0.20
2023-03-15T15:24:46.894Z,0.10
2023-03-15T15:29:58.197Z,0.10
2023-03-15T15:32:26.326Z,0.10
2023-03-15T15:37:38.360Z,0.20
2023-03-15T15:43:09.923Z,0.20
2023-03-15T15:45:37.408Z,0.10
2023-03-15T15:53:34.024Z,0.28
2023-03-15T15:56:05.186Z,0.20
2023-03-15T15:58:34.618Z,0.10
2023-03-15T16:01:08.041Z,0.40
2023-03-15T16:03:36.530Z,0.10
2023-03-15T16:06:03.629Z,0.10
2023-03-15T16:08:41.288Z,0.20
2023-03-15T16:11:13.848Z,0.13
2023-03-15T16:13:50.108Z,0.10
2023-03-15T16:16:22.265Z,0.10
2023-03-15T16:18:50.339Z,0.10
2023-03-15T16:21:33.496Z,0.10
2023-03-15T16:24:10.119Z,0.10
2023-03-15T16:26:40.521Z,0.10
2023-03-15T16:29:17.772Z,0.20
2023-03-15T16:31:45.817Z,0.20
2023-03-15T16:34:14.523Z,0.22
2023-03-15T16:36:46.076Z,1.73
2023-03-15T16:39:16.864Z,0.50
2023-03-15T16:44:27.435Z,0.10
2023-03-15T16:46:57.493Z,0.10
2023-03-15T16:49:26.296Z,0.22
2023-03-15T16:52:01.631Z,0.17
2023-03-15T16:54:41.067Z,0.60
2023-03-15T16:57:28.154Z,6.47
2023-03-15T16:59:55.018Z,4.80
2023-03-15T17:02:26.720Z,3.30
2023-03-15T17:04:54.157Z,0.90
2023-03-15T17:07:41.885Z,0.82
2023-03-15T17:10:27.429Z,0.80
2023-03-15T17:12:58.579Z,0.50
2023-03-15T17:15:27.111Z,0.30
2023-03-15T17:18:04.977Z,0.20
2023-03-15T17:20:31.938Z,0.38
2023-03-15T17:23:06.877Z,0.40
2023-03-15T17:25:35.580Z,0.30
2023-03-15T17:28:18.571Z,0.30
2023-03-15T17:30:48.522Z,0.20
2023-03-15T17:33:17.883Z,0.20
2023-03-15T17:35:55.942Z,0.45
2023-03-15T17:38:28.240Z,0.30
2023-03-15T17:40:57.270Z,0.35
2023-03-15T17:43:24.359Z,0.20
2023-03-15T17:45:52.363Z,0.30
2023-03-15T17:53:40.757Z,0.70
2023-03-15T17:56:08.978Z,0.57
2023-03-15T17:58:35.959Z,0.40
2023-03-15T18:01:04.610Z,0.70
2023-03-15T18:03:32.336Z,0.63
2023-03-15T18:06:01.458Z,0.52
2023-03-15T18:08:28.436Z,0.43
2023-03-15T18:11:00.911Z,0.63
2023-03-15T18:13:28.171Z,0.60
2023-03-15T18:15:57.484Z,0.60
2023-03-15T18:18:24.511Z,0.90
2023-03-15T18:20:53.041Z,0.60
2023-03-15T18:23:19.767Z,0.70
2023-03-15T18:25:46.482Z,0.50
2023-03-15T18:28:15.813Z,0.50
2023-03-15T18:30:44.355Z,0.90
2023-03-15T18:33:14.273Z,0.80
2023-03-15T18:35:41.005Z,0.90
2023-03-15T18:38:07.856Z,0.80
2023-03-15T18:40:36.745Z,0.60
2023-03-15T18:43:06.318Z,0.80
2023-03-15T18:45:36.839Z,0.63
2023-03-15T18:48:04.675Z,1.30
2023-03-15T18:50:31.927Z,1.40
2023-03-15T18:52:58.458Z,2.15
2023-03-15T18:55:26.137Z,2.00
2023-03-15T18:57:55.469Z,1.90
2023-03-15T19:00:26.977Z,1.50
2023-03-15T19:02:56.760Z,2.10
2023-03-15T19:05:25.492Z,2.47
2023-03-15T19:07:52.205Z,2.03
2023-03-15T19:10:20.835Z,2.17
2023-03-15T19:12:49.020Z,2.60
2023-03-15T19:15:18.362Z,2.50
2023-03-15T19:17:50.962Z,1.98
2023-03-15T19:20:21.486Z,2.10
2023-03-15T19:22:48.444Z,2.00
2023-03-15T19:25:15.596Z,2.05
2023-03-15T19:27:43.076Z,2.03
2023-03-15T19:30:14.761Z,1.88
2023-03-15T19:32:42.782Z,1.95
2023-03-15T19:35:09.663Z,1.80
2023-03-15T19:37:36.428Z,1.20
2023-03-15T19:40:03.973Z,1.60
2023-03-15T19:42:30.774Z,1.35
2023-03-15T19:44:58.541Z,1.80
2023-03-15T19:47:25.121Z,1.67
2023-03-15T19:49:51.755Z,1.30
2023-03-15T19:52:19.308Z,1.40
2023-03-15T19:54:49.023Z,1.20
2023-03-15T19:57:15.698Z,1.60
2023-03-15T19:59:43.458Z,1.50
2023-03-15T20:02:12.330Z,1.50
2023-03-15T20:04:48.042Z,1.27
2023-03-15T20:07:14.797Z,1.33
2023-03-15T20:09:41.458Z,1.40
2023-03-15T20:12:11.935Z,1.40
2023-03-15T20:14:39.332Z,1.20
2023-03-15T20:17:07.352Z,1.73
2023-03-15T20:19:34.039Z,1.85
2023-03-15T20:22:00.791Z,2.10
2023-03-15T20:24:27.762Z,2.50
2023-03-15T20:26:55.444Z,1.52
2023-03-15T20:29:22.496Z,2.03
2023-03-15T20:31:59.307Z,1.60
2023-03-15T20:34:26.017Z,1.35
2023-03-15T20:36:52.695Z,1.80
2023-03-15T20:39:19.397Z,2.58
2023-03-15T20:41:46.032Z,2.40
2023-03-15T20:44:12.798Z,5.75
2023-03-15T20:46:40.155Z,3.50
2023-03-15T20:49:07.123Z,5.17
2023-03-15T20:51:34.908Z,4.55
2023-03-15T20:54:01.544Z,6.60
2023-03-15T20:56:30.282Z,6.40
2023-03-15T20:58:57.092Z,9.00
2023-03-15T21:01:30.356Z,7.60
2023-03-15T21:03:57.685Z,7.20
2023-03-15T21:06:24.459Z,9.00
2023-03-15T21:08:52.334Z,7.78
2023-03-15T21:11:19.013Z,8.38
2023-03-15T21:13:45.996Z,6.20
2023-03-15T21:16:13.014Z,7.38
2023-03-15T21:18:45.286Z,6.75
2023-03-15T21:21:12.729Z,7.20
2023-03-15T21:23:39.445Z,3.67
2023-03-15T21:26:09.622Z,3.00
2023-03-15T21:28:37.467Z,4.07
2023-03-15T21:31:04.384Z,4.88
2023-03-15T21:33:31.690Z,3.25
2023-03-15T21:36:00.637Z,3.63
2023-03-15T21:38:29.025Z,2.60
2023-03-15T21:40:59.608Z,3.00
2023-03-15T21:43:28.251Z,2.58
2023-03-15T21:45:55.220Z,2.50
2023-03-15T21:48:21.925Z,1.88
2023-03-15T21:50:53.429Z,2.00
2023-03-15T21:53:25.164Z,1.60
2023-03-15T21:55:57.033Z,1.80
2023-03-15T21:58:24.985Z,1.80
2023-03-15T22:01:04.615Z,1.90
2023-03-15T22:03:34.682Z,2.07
2023-03-15T22:06:01.884Z,1.88
2023-03-15T22:08:28.697Z,1.45
2023-03-15T22:10:57.447Z,2.10
2023-03-15T22:13:25.149Z,1.63
2023-03-15T22:15:52.508Z,1.87
2023-03-15T22:18:21.615Z,1.77
2023-03-15T22:20:49.901Z,2.70
2023-03-15T22:23:24.671Z,1.80
2023-03-15T22:25:54.607Z,1.80
2023-03-15T22:28:23.001Z,1.70
2023-03-15T22:30:50.281Z,1.77
2023-03-15T22:33:18.649Z,1.60
2023-03-15T22:35:46.069Z,1.92
2023-03-15T22:38:13.638Z,1.80
2023-03-15T22:40:41.253Z,1.90
2023-03-15T22:43:08.482Z,1.30
2023-03-15T22:45:35.600Z,1.73
2023-03-15T22:48:02.381Z,1.92
2023-03-15T22:50:28.950Z,1.70
2023-03-15T22:52:57.992Z,1.67
2023-03-15T22:55:25.056Z,1.85
2023-03-15T22:57:51.637Z,2.03
2023-03-15T23:00:22.314Z,2.13
2023-03-15T23:02:49.178Z,2.03
2023-03-15T23:05:15.838Z,1.83
2023-03-15T23:07:42.471Z,1.83
2023-03-15T23:10:10.647Z,1.83
2023-03-15T23:12:37.367Z,1.60
2023-03-15T23:15:08.022Z,1.80
2023-03-15T23:17:34.780Z,1.93
2023-03-15T23:20:01.396Z,1.70
2023-03-15T23:22:27.978Z,1.77
2023-03-15T23:24:57.978Z,1.85
2023-03-15T23:27:26.036Z,1.70
2023-03-15T23:29:54.869Z,2.00
2023-03-15T23:32:25.141Z,1.98
2023-03-15T23:34:53.551Z,1.67
2023-03-15T23:37:21.195Z,1.73
2023-03-15T23:39:47.910Z,2.17
2023-03-15T23:42:14.463Z,1.37
2023-03-15T23:44:41.371Z,1.85
2023-03-15T23:47:08.165Z,1.50
2023-03-15T23:49:34.720Z,1.33
2023-03-15T23:52:05.716Z,1.40
2023-03-15T23:54:39.793Z,2.00
2023-03-15T23:57:09.774Z,2.05
2023-03-15T23:59:37.344Z,1.42
